sensor_id;sensor_type;location;lat;lon;timestamp;temperature;humidity
74946;HTU21D;63509;45.250;38.102;2023-12-20T00:01:50;7.11;80.62
74946;HTU21D;63509;45.250;38.102;2023-12-20T00:04:16;7.12;80.60
74946;HTU21D;63509;45.250;38.102;2023-12-20T00:06:42;7.14;80.59
74946;HTU21D;63509;45.250;38.102;2023-12-20T00:09:08;7.15;80.59
74946;HTU21D;63509;45.250;38.102;2023-12-20T00:11:34;7.17;80.61
74946;HTU21D;63509;45.250;38.102;2023-12-20T00:14:00;7.19;80.62
74946;HTU21D;63509;45.250;38.102;2023-12-20T00:16:26;7.20;80.65
74946;HTU21D;63509;45.250;38.102;2023-12-20T00:18:52;7.20;80.68
74946;HTU21D;63509;45.250;38.102;2023-12-20T00:21:18;7.23;80.72
74946;HTU21D;63509;45.250;38.102;2023-12-20T00:23:44;7.23;80.72
74946;HTU21D;63509;45.250;38.102;2023-12-20T00:26:10;7.26;80.72
74946;HTU21D;63509;45.250;38.102;2023-12-20T00:28:36;7.26;80.72
74946;HTU21D;63509;45.250;38.102;2023-12-20T00:31:05;7.27;80.73
74946;HTU21D;63509;45.250;38.102;2023-12-20T00:33:32;7.27;80.72
74946;HTU21D;63509;45.250;38.102;2023-12-20T00:35:58;7.27;80.75
74946;HTU21D;63509;45.250;38.102;2023-12-20T00:38:24;7.26;80.69
74946;HTU21D;63509;45.250;38.102;2023-12-20T00:40:50;7.26;80.75
74946;HTU21D;63509;45.250;38.102;2023-12-20T00:43:16;7.25;80.75
74946;HTU21D;63509;45.250;38.102;2023-12-20T00:45:42;7.27;80.81
74946;HTU21D;63509;45.250;38.102;2023-12-20T00:48:08;7.29;80.81
74946;HTU21D;63509;45.250;38.102;2023-12-20T00:50:34;7.31;80.83
74946;HTU21D;63509;45.250;38.102;2023-12-20T00:53:00;7.32;80.85
74946;HTU21D;63509;45.250;38.102;2023-12-20T00:55:26;7.33;80.86
74946;HTU21D;63509;45.250;38.102;2023-12-20T00:57:52;7.35;80.88
74946;HTU21D;63509;45.250;38.102;2023-12-20T01:00:19;7.35;80.91
74946;HTU21D;63509;45.250;38.102;2023-12-20T01:02:45;7.40;80.91
74946;HTU21D;63509;45.250;38.102;2023-12-20T01:05:14;7.42;80.89
74946;HTU21D;63509;45.250;38.102;2023-12-20T01:07:41;7.45;80.90
74946;HTU21D;63509;45.250;38.102;2023-12-20T01:10:07;7.46;80.91
74946;HTU21D;63509;45.250;38.102;2023-12-20T01:12:33;7.48;80.93
74946;HTU21D;63509;45.250;38.102;2023-12-20T01:14:59;7.50;80.93
74946;HTU21D;63509;45.250;38.102;2023-12-20T01:17:25;7.50;80.92
74946;HTU21D;63509;45.250;38.102;2023-12-20T01:19:51;7.52;80.94
74946;HTU21D;63509;45.250;38.102;2023-12-20T01:22:17;7.53;80.96
74946;HTU21D;63509;45.250;38.102;2023-12-20T01:24:43;7.52;80.98
74946;HTU21D;63509;45.250;38.102;2023-12-20T01:27:09;7.53;81.01
74946;HTU21D;63509;45.250;38.102;2023-12-20T01:29:35;7.53;81.04
74946;HTU21D;63509;45.250;38.102;2023-12-20T01:32:01;7.55;81.04
74946;HTU21D;63509;45.250;38.102;2023-12-20T01:34:27;7.58;81.08
74946;HTU21D;63509;45.250;38.102;2023-12-20T01:36:53;7.59;81.09
74946;HTU21D;63509;45.250;38.102;2023-12-20T01:39:20;7.62;81.10
74946;HTU21D;63509;45.250;38.102;2023-12-20T01:41:46;7.69;81.11
74946;HTU21D;63509;45.250;38.102;2023-12-20T01:44:12;7.71;81.14
74946;HTU21D;63509;45.250;38.102;2023-12-20T01:46:38;7.75;81.17
74946;HTU21D;63509;45.250;38.102;2023-12-20T01:49:04;7.79;81.18
74946;HTU21D;63509;45.250;38.102;2023-12-20T01:51:31;7.84;81.19
74946;HTU21D;63509;45.250;38.102;2023-12-20T01:53:58;7.88;81.20
74946;HTU21D;63509;45.250;38.102;2023-12-20T01:56:26;7.91;81.21
74946;HTU21D;63509;45.250;38.102;2023-12-20T01:58:53;7.93;81.21
74946;HTU21D;63509;45.250;38.102;2023-12-20T02:01:20;7.99;81.23
74946;HTU21D;63509;45.250;38.102;2023-12-20T02:03:46;8.00;81.24
74946;HTU21D;63509;45.250;38.102;2023-12-20T02:06:12;8.02;81.26
74946;HTU21D;63509;45.250;38.102;2023-12-20T02:08:38;8.05;81.27
74946;HTU21D;63509;45.250;38.102;2023-12-20T02:11:04;8.05;81.29
74946;HTU21D;63509;45.250;38.102;2023-12-20T02:13:30;8.07;81.30
74946;HTU21D;63509;45.250;38.102;2023-12-20T02:15:57;8.06;81.34
74946;HTU21D;63509;45.250;38.102;2023-12-20T02:18:23;8.09;81.35
74946;HTU21D;63509;45.250;38.102;2023-12-20T02:20:49;8.11;81.36
74946;HTU21D;63509;45.250;38.102;2023-12-20T02:23:15;8.13;81.36
74946;HTU21D;63509;45.250;38.102;2023-12-20T02:25:41;8.14;81.36
74946;HTU21D;63509;45.250;38.102;2023-12-20T02:28:07;8.16;81.36
74946;HTU21D;63509;45.250;38.102;2023-12-20T02:30:33;8.17;81.38
74946;HTU21D;63509;45.250;38.102;2023-12-20T02:33:01;8.19;81.39
74946;HTU21D;63509;45.250;38.102;2023-12-20T02:35:27;8.23;81.36
74946;HTU21D;63509;45.250;38.102;2023-12-20T02:37:53;8.24;81.36
74946;HTU21D;63509;45.250;38.102;2023-12-20T02:40:19;8.26;81.39
74946;HTU21D;63509;45.250;38.102;2023-12-20T02:42:45;8.29;81.39
74946;HTU21D;63509;45.250;38.102;2023-12-20T02:45:11;8.31;81.39
74946;HTU21D;63509;45.250;38.102;2023-12-20T02:47:37;8.34;81.40
74946;HTU21D;63509;45.250;38.102;2023-12-20T02:50:03;8.36;81.43
74946;HTU21D;63509;45.250;38.102;2023-12-20T02:52:29;8.38;81.43
74946;HTU21D;63509;45.250;38.102;2023-12-20T02:54:55;8.39;81.45
74946;HTU21D;63509;45.250;38.102;2023-12-20T02:57:21;8.45;81.44
74946;HTU21D;63509;45.250;38.102;2023-12-20T02:59:47;8.47;81.46
74946;HTU21D;63509;45.250;38.102;2023-12-20T03:02:14;8.47;81.46
74946;HTU21D;63509;45.250;38.102;2023-12-20T03:04:40;8.47;81.46
74946;HTU21D;63509;45.250;38.102;2023-12-20T03:07:06;8.48;81.49
74946;HTU21D;63509;45.250;38.102;2023-12-20T03:09:32;8.48;81.50
74946;HTU21D;63509;45.250;38.102;2023-12-20T03:11:58;8.50;81.52
74946;HTU21D;63509;45.250;38.102;2023-12-20T03:14:24;8.49;81.50
74946;HTU21D;63509;45.250;38.102;2023-12-20T03:16:50;8.48;81.52
74946;HTU21D;63509;45.250;38.102;2023-12-20T03:19:17;8.49;81.54
74946;HTU21D;63509;45.250;38.102;2023-12-20T03:21:43;8.47;81.57
74946;HTU21D;63509;45.250;38.102;2023-12-20T03:24:09;8.47;81.58
74946;HTU21D;63509;45.250;38.102;2023-12-20T03:26:35;8.48;81.63
74946;HTU21D;63509;45.250;38.102;2023-12-20T03:29:01;8.47;81.68
74946;HTU21D;63509;45.250;38.102;2023-12-20T03:31:27;8.49;81.70
74946;HTU21D;63509;45.250;38.102;2023-12-20T03:33:53;8.51;81.72
74946;HTU21D;63509;45.250;38.102;2023-12-20T03:36:20;8.55;81.75
74946;HTU21D;63509;45.250;38.102;2023-12-20T03:38:46;8.57;81.73
74946;HTU21D;63509;45.250;38.102;2023-12-20T03:41:12;8.60;81.75
74946;HTU21D;63509;45.250;38.102;2023-12-20T03:43:38;8.63;81.74
74946;HTU21D;63509;45.250;38.102;2023-12-20T03:46:05;8.66;81.73
74946;HTU21D;63509;45.250;38.102;2023-12-20T03:48:31;8.67;81.70
74946;HTU21D;63509;45.250;38.102;2023-12-20T03:50:57;8.72;81.72
74946;HTU21D;63509;45.250;38.102;2023-12-20T03:53:23;8.75;81.74
74946;HTU21D;63509;45.250;38.102;2023-12-20T03:55:49;8.77;81.73
74946;HTU21D;63509;45.250;38.102;2023-12-20T03:58:15;8.81;81.74
74946;HTU21D;63509;45.250;38.102;2023-12-20T04:00:41;8.83;81.72
74946;HTU21D;63509;45.250;38.102;2023-12-20T04:03:07;8.88;81.73
74946;HTU21D;63509;45.250;38.102;2023-12-20T04:05:33;8.91;81.73
74946;HTU21D;63509;45.250;38.102;2023-12-20T04:08:02;8.95;81.76
74946;HTU21D;63509;45.250;38.102;2023-12-20T04:10:30;8.98;81.75
74946;HTU21D;63509;45.250;38.102;2023-12-20T04:12:56;9.02;81.76
74946;HTU21D;63509;45.250;38.102;2023-12-20T04:15:22;9.06;81.73
74946;HTU21D;63509;45.250;38.102;2023-12-20T04:17:49;9.10;81.75
74946;HTU21D;63509;45.250;38.102;2023-12-20T04:20:14;9.14;81.75
74946;HTU21D;63509;45.250;38.102;2023-12-20T04:22:40;9.16;81.75
74946;HTU21D;63509;45.250;38.102;2023-12-20T04:25:08;9.19;81.74
74946;HTU21D;63509;45.250;38.102;2023-12-20T04:27:34;9.20;81.73
74946;HTU21D;63509;45.250;38.102;2023-12-20T04:30:00;9.20;81.75
74946;HTU21D;63509;45.250;38.102;2023-12-20T04:32:26;9.23;81.74
74946;HTU21D;63509;45.250;38.102;2023-12-20T04:34:52;9.23;81.74
74946;HTU21D;63509;45.250;38.102;2023-12-20T04:37:18;9.24;81.75
74946;HTU21D;63509;45.250;38.102;2023-12-20T04:39:44;9.24;81.75
74946;HTU21D;63509;45.250;38.102;2023-12-20T04:42:10;9.25;81.76
74946;HTU21D;63509;45.250;38.102;2023-12-20T04:44:36;9.26;81.78
74946;HTU21D;63509;45.250;38.102;2023-12-20T04:47:03;9.31;81.88
74946;HTU21D;63509;45.250;38.102;2023-12-20T04:49:29;9.31;81.88
74946;HTU21D;63509;45.250;38.102;2023-12-20T04:51:55;9.31;81.85
74946;HTU21D;63509;45.250;38.102;2023-12-20T04:54:21;9.31;81.87
74946;HTU21D;63509;45.250;38.102;2023-12-20T04:56:47;9.30;81.85
74946;HTU21D;63509;45.250;38.102;2023-12-20T04:59:13;9.30;81.88
74946;HTU21D;63509;45.250;38.102;2023-12-20T05:01:39;9.30;81.87
74946;HTU21D;63509;45.250;38.102;2023-12-20T05:04:05;9.32;81.88
74946;HTU21D;63509;45.250;38.102;2023-12-20T05:06:31;9.32;81.89
74946;HTU21D;63509;45.250;38.102;2023-12-20T05:08:57;9.33;81.88
74946;HTU21D;63509;45.250;38.102;2023-12-20T05:11:23;9.32;81.90
74946;HTU21D;63509;45.250;38.102;2023-12-20T05:13:49;9.33;81.91
74946;HTU21D;63509;45.250;38.102;2023-12-20T05:16:15;9.35;81.89
74946;HTU21D;63509;45.250;38.102;2023-12-20T05:18:44;9.35;81.94
74946;HTU21D;63509;45.250;38.102;2023-12-20T05:21:10;9.36;81.93
74946;HTU21D;63509;45.250;38.102;2023-12-20T05:23:36;9.38;81.94
74946;HTU21D;63509;45.250;38.102;2023-12-20T05:26:03;9.40;81.91
74946;HTU21D;63509;45.250;38.102;2023-12-20T05:28:29;9.42;81.91
74946;HTU21D;63509;45.250;38.102;2023-12-20T05:30:55;9.45;81.93
74946;HTU21D;63509;45.250;38.102;2023-12-20T05:33:21;9.48;81.97
74946;HTU21D;63509;45.250;38.102;2023-12-20T05:35:47;9.51;81.93
74946;HTU21D;63509;45.250;38.102;2023-12-20T05:38:13;9.55;81.89
74946;HTU21D;63509;45.250;38.102;2023-12-20T05:40:40;9.59;81.88
74946;HTU21D;63509;45.250;38.102;2023-12-20T05:43:06;9.64;81.81
74946;HTU21D;63509;45.250;38.102;2023-12-20T05:45:32;9.71;81.79
74946;HTU21D;63509;45.250;38.102;2023-12-20T05:47:58;9.78;81.71
74946;HTU21D;63509;45.250;38.102;2023-12-20T05:50:24;9.84;81.63
74946;HTU21D;63509;45.250;38.102;2023-12-20T05:52:51;9.95;81.54
74946;HTU21D;63509;45.250;38.102;2023-12-20T05:55:17;10.01;81.43
74946;HTU21D;63509;45.250;38.102;2023-12-20T05:57:43;10.10;81.34
74946;HTU21D;63509;45.250;38.102;2023-12-20T06:00:09;10.22;81.26
74946;HTU21D;63509;45.250;38.102;2023-12-20T06:02:39;10.33;81.14
74946;HTU21D;63509;45.250;38.102;2023-12-20T06:05:06;10.42;81.02
74946;HTU21D;63509;45.250;38.102;2023-12-20T06:07:32;10.52;80.91
74946;HTU21D;63509;45.250;38.102;2023-12-20T06:09:58;10.60;80.77
74946;HTU21D;63509;45.250;38.102;2023-12-20T06:12:24;10.69;80.64
74946;HTU21D;63509;45.250;38.102;2023-12-20T06:14:52;10.74;80.52
74946;HTU21D;63509;45.250;38.102;2023-12-20T06:17:18;10.83;80.40
74946;HTU21D;63509;45.250;38.102;2023-12-20T06:19:45;10.89;80.30
74946;HTU21D;63509;45.250;38.102;2023-12-20T06:22:15;10.99;80.14
74946;HTU21D;63509;45.250;38.102;2023-12-20T06:24:41;11.05;80.01
74946;HTU21D;63509;45.250;38.102;2023-12-20T06:27:07;11.13;79.88
74946;HTU21D;63509;45.250;38.102;2023-12-20T06:29:33;11.22;79.76
74946;HTU21D;63509;45.250;38.102;2023-12-20T06:32:00;11.32;79.64
74946;HTU21D;63509;45.250;38.102;2023-12-20T06:34:26;11.42;79.50
74946;HTU21D;63509;45.250;38.102;2023-12-20T06:36:52;11.52;79.42
74946;HTU21D;63509;45.250;38.102;2023-12-20T06:39:18;11.63;79.30
74946;HTU21D;63509;45.250;38.102;2023-12-20T06:41:44;11.76;79.19
74946;HTU21D;63509;45.250;38.102;2023-12-20T06:44:10;11.91;79.10
74946;HTU21D;63509;45.250;38.102;2023-12-20T06:46:36;12.07;78.90
74946;HTU21D;63509;45.250;38.102;2023-12-20T06:49:02;12.25;78.72
74946;HTU21D;63509;45.250;38.102;2023-12-20T06:51:28;12.41;78.54
74946;HTU21D;63509;45.250;38.102;2023-12-20T06:53:56;12.56;78.37
74946;HTU21D;63509;45.250;38.102;2023-12-20T06:56:22;12.74;78.17
74946;HTU21D;63509;45.250;38.102;2023-12-20T06:58:48;12.91;77.86
74946;HTU21D;63509;45.250;38.102;2023-12-20T07:01:15;13.06;77.59
74946;HTU21D;63509;45.250;38.102;2023-12-20T07:03:41;13.19;77.40
74946;HTU21D;63509;45.250;38.102;2023-12-20T07:06:08;13.34;77.19
74946;HTU21D;63509;45.250;38.102;2023-12-20T07:08:34;13.50;76.95
74946;HTU21D;63509;45.250;38.102;2023-12-20T07:11:00;13.62;76.64
74946;HTU21D;63509;45.250;38.102;2023-12-20T07:13:26;13.73;76.47
74946;HTU21D;63509;45.250;38.102;2023-12-20T07:15:53;13.81;76.22
74946;HTU21D;63509;45.250;38.102;2023-12-20T07:18:18;13.93;75.95
74946;HTU21D;63509;45.250;38.102;2023-12-20T07:20:44;13.98;75.72
74946;HTU21D;63509;45.250;38.102;2023-12-20T07:23:11;14.06;75.67
74946;HTU21D;63509;45.250;38.102;2023-12-20T07:25:37;14.13;75.50
74946;HTU21D;63509;45.250;38.102;2023-12-20T07:28:03;14.22;75.38
74946;HTU21D;63509;45.250;38.102;2023-12-20T07:30:30;14.29;75.06
74946;HTU21D;63509;45.250;38.102;2023-12-20T07:32:56;14.30;74.76
74946;HTU21D;63509;45.250;38.102;2023-12-20T07:35:26;14.30;74.62
74946;HTU21D;63509;45.250;38.102;2023-12-20T07:37:52;14.27;74.47
74946;HTU21D;63509;45.250;38.102;2023-12-20T07:40:18;14.25;74.41
74946;HTU21D;63509;45.250;38.102;2023-12-20T07:42:44;14.26;74.18
74946;HTU21D;63509;45.250;38.102;2023-12-20T07:45:10;14.26;74.02
74946;HTU21D;63509;45.250;38.102;2023-12-20T07:47:39;14.24;73.93
74946;HTU21D;63509;45.250;38.102;2023-12-20T07:50:06;14.23;73.81
74946;HTU21D;63509;45.250;38.102;2023-12-20T07:52:32;14.22;73.63
74946;HTU21D;63509;45.250;38.102;2023-12-20T07:54:58;14.22;73.63
74946;HTU21D;63509;45.250;38.102;2023-12-20T07:57:24;14.22;73.28
74946;HTU21D;63509;45.250;38.102;2023-12-20T07:59:50;14.21;73.09
74946;HTU21D;63509;45.250;38.102;2023-12-20T08:02:16;14.22;73.05
74946;HTU21D;63509;45.250;38.102;2023-12-20T08:04:42;14.23;72.95
74946;HTU21D;63509;45.250;38.102;2023-12-20T08:07:08;14.24;72.78
74946;HTU21D;63509;45.250;38.102;2023-12-20T08:09:34;14.17;72.81
74946;HTU21D;63509;45.250;38.102;2023-12-20T08:12:02;14.15;72.77
74946;HTU21D;63509;45.250;38.102;2023-12-20T08:14:28;14.12;72.74
74946;HTU21D;63509;45.250;38.102;2023-12-20T08:16:55;14.12;72.73
74946;HTU21D;63509;45.250;38.102;2023-12-20T08:19:21;14.15;72.76
74946;HTU21D;63509;45.250;38.102;2023-12-20T08:21:47;14.17;72.63
74946;HTU21D;63509;45.250;38.102;2023-12-20T08:24:13;14.20;72.51
74946;HTU21D;63509;45.250;38.102;2023-12-20T08:26:39;14.22;72.41
74946;HTU21D;63509;45.250;38.102;2023-12-20T08:29:06;14.23;72.38
74946;HTU21D;63509;45.250;38.102;2023-12-20T08:31:32;14.28;72.35
74946;HTU21D;63509;45.250;38.102;2023-12-20T08:33:58;14.30;72.22
74946;HTU21D;63509;45.250;38.102;2023-12-20T08:36:24;14.35;72.25
74946;HTU21D;63509;45.250;38.102;2023-12-20T08:38:51;14.38;72.11
74946;HTU21D;63509;45.250;38.102;2023-12-20T08:41:17;14.42;72.13
74946;HTU21D;63509;45.250;38.102;2023-12-20T08:43:43;14.47;72.15
74946;HTU21D;63509;45.250;38.102;2023-12-20T08:46:09;14.52;72.07
74946;HTU21D;63509;45.250;38.102;2023-12-20T08:48:36;14.57;71.90
74946;HTU21D;63509;45.250;38.102;2023-12-20T08:51:03;14.59;71.92
74946;HTU21D;63509;45.250;38.102;2023-12-20T08:53:29;14.65;71.77
74946;HTU21D;63509;45.250;38.102;2023-12-20T08:55:56;14.65;71.56
74946;HTU21D;63509;45.250;38.102;2023-12-20T08:58:27;14.54;71.43
74946;HTU21D;63509;45.250;38.102;2023-12-20T09:00:53;14.41;71.46
74946;HTU21D;63509;45.250;38.102;2023-12-20T09:03:19;14.28;71.56
74946;HTU21D;63509;45.250;38.102;2023-12-20T09:05:45;14.15;71.61
74946;HTU21D;63509;45.250;38.102;2023-12-20T09:08:11;14.05;71.74
74946;HTU21D;63509;45.250;38.102;2023-12-20T09:10:38;13.97;71.86
74946;HTU21D;63509;45.250;38.102;2023-12-20T09:13:04;13.92;71.89
74946;HTU21D;63509;45.250;38.102;2023-12-20T09:15:30;13.92;72.08
74946;HTU21D;63509;45.250;38.102;2023-12-20T09:17:56;13.96;71.87
74946;HTU21D;63509;45.250;38.102;2023-12-20T09:20:22;13.92;71.95
74946;HTU21D;63509;45.250;38.102;2023-12-20T09:22:49;13.91;71.93
74946;HTU21D;63509;45.250;38.102;2023-12-20T09:25:15;13.90;71.93
74946;HTU21D;63509;45.250;38.102;2023-12-20T09:27:43;13.90;72.01
74946;HTU21D;63509;45.250;38.102;2023-12-20T09:30:09;13.93;71.94
74946;HTU21D;63509;45.250;38.102;2023-12-20T09:32:35;13.96;71.90
74946;HTU21D;63509;45.250;38.102;2023-12-20T09:35:02;14.01;71.81
74946;HTU21D;63509;45.250;38.102;2023-12-20T09:37:31;14.07;71.74
74946;HTU21D;63509;45.250;38.102;2023-12-20T09:39:57;14.13;71.45
74946;HTU21D;63509;45.250;38.102;2023-12-20T09:42:48;14.13;71.58
74946;HTU21D;63509;45.250;38.102;2023-12-20T09:45:19;14.11;71.36
74946;HTU21D;63509;45.250;38.102;2023-12-20T09:47:49;14.03;71.19
74946;HTU21D;63509;45.250;38.102;2023-12-20T09:50:17;13.91;71.27
74946;HTU21D;63509;45.250;38.102;2023-12-20T09:52:46;13.83;71.36
74946;HTU21D;63509;45.250;38.102;2023-12-20T09:55:16;13.77;71.45
74946;HTU21D;63509;45.250;38.102;2023-12-20T09:57:43;13.76;71.47
74946;HTU21D;63509;45.250;38.102;2023-12-20T10:00:09;13.75;71.44
74946;HTU21D;63509;45.250;38.102;2023-12-20T10:02:43;13.69;71.35
74946;HTU21D;63509;45.250;38.102;2023-12-20T10:05:16;13.66;71.46
74946;HTU21D;63509;45.250;38.102;2023-12-20T10:07:45;13.62;71.40
74946;HTU21D;63509;45.250;38.102;2023-12-20T10:10:13;13.61;71.34
74946;HTU21D;63509;45.250;38.102;2023-12-20T10:12:39;13.59;71.39
74946;HTU21D;63509;45.250;38.102;2023-12-20T10:15:06;13.55;71.36
74946;HTU21D;63509;45.250;38.102;2023-12-20T10:17:32;13.52;71.35
74946;HTU21D;63509;45.250;38.102;2023-12-20T10:19:58;13.50;71.43
74946;HTU21D;63509;45.250;38.102;2023-12-20T10:22:24;13.49;71.43
74946;HTU21D;63509;45.250;38.102;2023-12-20T10:24:51;13.49;71.35
74946;HTU21D;63509;45.250;38.102;2023-12-20T10:27:18;13.47;71.40
74946;HTU21D;63509;45.250;38.102;2023-12-20T10:29:45;13.44;71.41
74946;HTU21D;63509;45.250;38.102;2023-12-20T10:32:29;13.43;71.49
74946;HTU21D;63509;45.250;38.102;2023-12-20T10:34:56;13.38;71.42
74946;HTU21D;63509;45.250;38.102;2023-12-20T10:37:22;13.36;71.42
74946;HTU21D;63509;45.250;38.102;2023-12-20T10:39:53;13.34;71.40
74946;HTU21D;63509;45.250;38.102;2023-12-20T10:42:22;13.31;71.34
74946;HTU21D;63509;45.250;38.102;2023-12-20T10:44:51;13.25;71.35
74946;HTU21D;63509;45.250;38.102;2023-12-20T10:47:23;13.25;71.40
74946;HTU21D;63509;45.250;38.102;2023-12-20T10:49:52;13.25;71.38
74946;HTU21D;63509;45.250;38.102;2023-12-20T10:52:18;13.24;71.35
74946;HTU21D;63509;45.250;38.102;2023-12-20T10:54:46;13.21;71.33
74946;HTU21D;63509;45.250;38.102;2023-12-20T10:57:12;13.23;71.34
74946;HTU21D;63509;45.250;38.102;2023-12-20T10:59:39;13.22;71.26
74946;HTU21D;63509;45.250;38.102;2023-12-20T11:02:06;13.21;71.26
74946;HTU21D;63509;45.250;38.102;2023-12-20T11:04:47;13.19;71.29
74946;HTU21D;63509;45.250;38.102;2023-12-20T11:07:47;13.19;71.38
74946;HTU21D;63509;45.250;38.102;2023-12-20T11:10:25;13.18;71.29
74946;HTU21D;63509;45.250;38.102;2023-12-20T11:12:56;13.17;71.19
74946;HTU21D;63509;45.250;38.102;2023-12-20T11:15:24;13.17;71.20
74946;HTU21D;63509;45.250;38.102;2023-12-20T11:17:56;13.17;71.18
74946;HTU21D;63509;45.250;38.102;2023-12-20T11:20:39;13.18;71.23
74946;HTU21D;63509;45.250;38.102;2023-12-20T11:23:06;13.15;71.05
74946;HTU21D;63509;45.250;38.102;2023-12-20T11:25:52;13.11;71.16
74946;HTU21D;63509;45.250;38.102;2023-12-20T11:28:23;13.06;71.06
74946;HTU21D;63509;45.250;38.102;2023-12-20T11:30:53;12.99;71.03
74946;HTU21D;63509;45.250;38.102;2023-12-20T11:33:24;12.94;71.10
74946;HTU21D;63509;45.250;38.102;2023-12-20T11:35:51;12.90;71.14
74946;HTU21D;63509;45.250;38.102;2023-12-20T11:38:20;12.85;71.15
74946;HTU21D;63509;45.250;38.102;2023-12-20T11:40:49;12.80;71.13
74946;HTU21D;63509;45.250;38.102;2023-12-20T11:43:52;12.78;71.29
74946;HTU21D;63509;45.250;38.102;2023-12-20T11:46:19;12.72;71.23
74946;HTU21D;63509;45.250;38.102;2023-12-20T11:48:45;12.67;71.25
74946;HTU21D;63509;45.250;38.102;2023-12-20T11:51:13;12.65;71.27
74946;HTU21D;63509;45.250;38.102;2023-12-20T11:53:40;12.64;71.29
74946;HTU21D;63509;45.250;38.102;2023-12-20T11:56:09;12.66;71.31
74946;HTU21D;63509;45.250;38.102;2023-12-20T11:58:35;12.70;71.23
74946;HTU21D;63509;45.250;38.102;2023-12-20T12:01:01;12.73;71.19
74946;HTU21D;63509;45.250;38.102;2023-12-20T12:03:28;12.77;71.19
74946;HTU21D;63509;45.250;38.102;2023-12-20T12:05:54;12.79;71.13
74946;HTU21D;63509;45.250;38.102;2023-12-20T12:08:20;12.81;71.07
74946;HTU21D;63509;45.250;38.102;2023-12-20T12:10:47;12.84;71.06
74946;HTU21D;63509;45.250;38.102;2023-12-20T12:13:13;12.85;71.00
74946;HTU21D;63509;45.250;38.102;2023-12-20T12:15:40;12.86;70.99
74946;HTU21D;63509;45.250;38.102;2023-12-20T12:18:08;12.85;70.93
74946;HTU21D;63509;45.250;38.102;2023-12-20T12:20:34;12.85;70.90
74946;HTU21D;63509;45.250;38.102;2023-12-20T12:23:02;12.82;70.84
74946;HTU21D;63509;45.250;38.102;2023-12-20T12:25:30;12.80;70.87
74946;HTU21D;63509;45.250;38.102;2023-12-20T12:27:57;12.78;70.82
74946;HTU21D;63509;45.250;38.102;2023-12-20T12:30:24;12.76;70.83
74946;HTU21D;63509;45.250;38.102;2023-12-20T12:32:51;12.73;70.87
74946;HTU21D;63509;45.250;38.102;2023-12-20T12:35:18;12.71;70.79
74946;HTU21D;63509;45.250;38.102;2023-12-20T12:37:45;12.67;70.69
74946;HTU21D;63509;45.250;38.102;2023-12-20T12:40:13;12.64;70.69
74946;HTU21D;63509;45.250;38.102;2023-12-20T12:42:40;12.62;70.73
74946;HTU21D;63509;45.250;38.102;2023-12-20T12:45:07;12.57;70.70
74946;HTU21D;63509;45.250;38.102;2023-12-20T12:47:34;12.56;70.70
74946;HTU21D;63509;45.250;38.102;2023-12-20T12:50:00;12.51;70.75
74946;HTU21D;63509;45.250;38.102;2023-12-20T12:52:26;12.49;70.74
74946;HTU21D;63509;45.250;38.102;2023-12-20T12:54:53;12.45;70.76
74946;HTU21D;63509;45.250;38.102;2023-12-20T12:57:19;12.41;70.77
74946;HTU21D;63509;45.250;38.102;2023-12-20T12:59:46;12.38;70.84
74946;HTU21D;63509;45.250;38.102;2023-12-20T13:02:13;12.37;70.82
74946;HTU21D;63509;45.250;38.102;2023-12-20T13:04:42;12.33;70.86
74946;HTU21D;63509;45.250;38.102;2023-12-20T13:07:09;12.31;70.87
74946;HTU21D;63509;45.250;38.102;2023-12-20T13:09:39;12.29;70.87
74946;HTU21D;63509;45.250;38.102;2023-12-20T13:12:06;12.23;70.90
74946;HTU21D;63509;45.250;38.102;2023-12-20T13:14:34;12.20;70.93
74946;HTU21D;63509;45.250;38.102;2023-12-20T13:17:04;12.16;70.94
74946;HTU21D;63509;45.250;38.102;2023-12-20T13:19:30;12.13;70.97
74946;HTU21D;63509;45.250;38.102;2023-12-20T13:21:56;12.08;71.00
74946;HTU21D;63509;45.250;38.102;2023-12-20T13:24:24;12.04;71.04
74946;HTU21D;63509;45.250;38.102;2023-12-20T13:26:51;11.99;71.09
74946;HTU21D;63509;45.250;38.102;2023-12-20T13:29:17;11.94;71.17
74946;HTU21D;63509;45.250;38.102;2023-12-20T13:31:43;11.90;71.19
74946;HTU21D;63509;45.250;38.102;2023-12-20T13:34:09;11.85;71.26
74946;HTU21D;63509;45.250;38.102;2023-12-20T13:36:35;11.81;71.28
74946;HTU21D;63509;45.250;38.102;2023-12-20T13:39:03;11.76;71.32
74946;HTU21D;63509;45.250;38.102;2023-12-20T13:41:30;11.70;71.41
74946;HTU21D;63509;45.250;38.102;2023-12-20T13:43:57;11.62;71.46
74946;HTU21D;63509;45.250;38.102;2023-12-20T13:46:23;11.56;71.49
74946;HTU21D;63509;45.250;38.102;2023-12-20T13:48:49;11.48;71.56
74946;HTU21D;63509;45.250;38.102;2023-12-20T13:51:15;11.42;71.61
74946;HTU21D;63509;45.250;38.102;2023-12-20T13:53:42;11.37;71.66
74946;HTU21D;63509;45.250;38.102;2023-12-20T13:56:08;11.32;71.68
74946;HTU21D;63509;45.250;38.102;2023-12-20T13:58:34;11.27;71.72
74946;HTU21D;63509;45.250;38.102;2023-12-20T14:01:00;11.22;71.75
74946;HTU21D;63509;45.250;38.102;2023-12-20T14:03:26;11.16;71.80
74946;HTU21D;63509;45.250;38.102;2023-12-20T14:05:53;11.13;71.86
74946;HTU21D;63509;45.250;38.102;2023-12-20T14:08:19;11.09;71.91
74946;HTU21D;63509;45.250;38.102;2023-12-20T14:10:45;11.04;71.93
74946;HTU21D;63509;45.250;38.102;2023-12-20T14:13:11;11.01;71.96
74946;HTU21D;63509;45.250;38.102;2023-12-20T14:15:37;10.97;72.00
74946;HTU21D;63509;45.250;38.102;2023-12-20T14:18:07;10.95;72.03
74946;HTU21D;63509;45.250;38.102;2023-12-20T14:20:36;10.92;72.06
74946;HTU21D;63509;45.250;38.102;2023-12-20T14:23:03;10.87;72.08
74946;HTU21D;63509;45.250;38.102;2023-12-20T14:25:29;10.84;72.06
74946;HTU21D;63509;45.250;38.102;2023-12-20T14:27:57;10.81;72.09
74946;HTU21D;63509;45.250;38.102;2023-12-20T14:30:23;10.78;72.16
74946;HTU21D;63509;45.250;38.102;2023-12-20T14:32:50;10.71;72.19
74946;HTU21D;63509;45.250;38.102;2023-12-20T14:35:16;10.70;72.21
74946;HTU21D;63509;45.250;38.102;2023-12-20T14:37:42;10.67;72.29
74946;HTU21D;63509;45.250;38.102;2023-12-20T14:40:10;10.66;72.29
74946;HTU21D;63509;45.250;38.102;2023-12-20T14:42:44;10.68;72.25
74946;HTU21D;63509;45.250;38.102;2023-12-20T14:45:11;10.70;72.29
74946;HTU21D;63509;45.250;38.102;2023-12-20T14:47:39;10.71;72.24
74946;HTU21D;63509;45.250;38.102;2023-12-20T14:50:06;10.73;72.18
74946;HTU21D;63509;45.250;38.102;2023-12-20T14:52:35;10.73;72.15
74946;HTU21D;63509;45.250;38.102;2023-12-20T14:55:03;10.71;72.15
74946;HTU21D;63509;45.250;38.102;2023-12-20T14:57:29;10.73;72.10
74946;HTU21D;63509;45.250;38.102;2023-12-20T14:59:56;10.72;72.09
74946;HTU21D;63509;45.250;38.102;2023-12-20T15:02:25;10.72;72.10
74946;HTU21D;63509;45.250;38.102;2023-12-20T15:04:54;10.73;72.07
74946;HTU21D;63509;45.250;38.102;2023-12-20T15:07:20;10.74;72.03